INDIA METEOROLOGICAL DEPARTMENT, R.M.C. NEW DELHI
Dated:25 - 5 - 2017
METARS OF ALTERNATE AIRPORTS
Delhi      
VIDP 251000Z 04005G15KT 3500 HZ SCT040 41/13 Q1001 NOSIG =
Amritsar   
VIAR 251000Z 28009KT 4500 DU FEW040 SCT100 41/15 Q1000 NOSIG=
Lucknow    
VILK 251000Z VRB02KT 3500 HZ SCT020 SCT025 BKN100 45/20 Q0998 NOSIG=
Jaipur     
VIJP 251000Z 30007KT 5000 HZ SCT035 41/09 Q1002 NOSIG=
Ahmedabad  
VAAH 251000Z 25012KT 6000 NSC 42/20 Q1001 NOSIG=
Udaipur    
VAUD 251000Z 34006KT 4000 -TSDZ SCT025 SCT030 FEW035CB 34/16 Q1005 TEMPO 3000 TSRA=
Mumbai     
VABB 251000Z 27011KT 7000 FEW020 32/25 Q1004 NOSIG=